Pagrindinis puslapis
METAR-TAF:

METAR-TAF

Oro uostai :

Kuskas, Peru

platuma: 13-33S, ilguma: 071-59W, Aukštis: 3248 m

Dabartinis oras

Ataskaita buvo paskelbta 14 valandos ir 42 minutes, ne 20:00 UTC
Vėjas 6 kt iš Vakarų
Temperatūra 17°C
Drėgmė 48%
Slėgis 1030 hPa
Matomumas 10 km arba daugiau
Mažai debesys ne aukštis 5000 ft

METAR: SPZO 302000Z 26006KT 9999 FEW050 17/06 Q1030 NOSIG RMK BIRD HAZARD RWY 28 PP000

Laikas: 05:42 (10:42 UTC)

Prognozė

Ataskaita buvo paskelbta 17 valandos ir 42 minutes, ne 17:00 UTC
Prognozė galioja nuo 30 metu 18 UTC su 31 metu 18 UTC
Vėjas 10 kt iš Rytų/Pietryčių
Matomumas 10 km arba daugiau
Išsisklaidę debesys ne aukštis 4000 ft
Su prošvaistėmis ne aukštis 8000 ft
Laikinai
nuo 30 metu 18 UTC su 30 metu 23 UTC
Mažai debesys ne aukštis 4000 ft, aukštai iškilę kamuoliniai debesys.
Su prošvaistėmis ne aukštis 8000 ft
dulksna
Tapsmas
nuo 31 metu 00 UTC su 31 metu 02 UTC
Vėjas kt iš Šiaurės

TAF: SPZO 301700Z 3018/3118 11010KT 9999 SCT040 BKN080 TX18/3019Z TN09/3111Z TEMPO 3018/3023 DZ FEW040TCU BKN080 BECMG 3100/3102 00000KT

Orai ataskaitas ir orų prognozės (METAR, TAF).

turimą stotys yra geltonos ir raudonos taškus žemėlapyje.

Perkelti pele per norėdami pamatyti stoties vardą.

Tada spustelėkite, norėdami matyti oro stebėjimo ir prognozės.

Norėdami pakeisti žemėlapį: spustelėkite ant žalios mygtukų su juodo kryžiaus žemyn,; žalią mygtuką su brūkšneliu, jei norite nutolinti; arba žalių rodyklių gretimoms žemėlapius.


METAR-TAF: